createdAt,value
2018-12-12T00:01:15.051Z,18.07
2018-12-12T00:03:49.811Z,16.90
2018-12-12T00:06:24.740Z,23.17
2018-12-12T00:08:59.543Z,20.00
2018-12-12T00:11:34.720Z,22.43
2018-12-12T00:14:05.235Z,20.77
2018-12-12T00:16:40.009Z,18.57
2018-12-12T00:19:14.903Z,23.50
2018-12-12T00:21:49.716Z,20.40
2018-12-12T00:24:24.639Z,20.27
2018-12-12T00:26:53.981Z,20.97
2018-12-12T00:29:28.755Z,17.40
2018-12-12T00:32:04.124Z,17.77
2018-12-12T00:34:38.809Z,20.50
2018-12-12T00:37:13.964Z,16.17
2018-12-12T00:39:48.995Z,18.10
2018-12-12T00:42:23.876Z,22.50
2018-12-12T00:44:58.651Z,19.30
2018-12-12T00:47:33.820Z,17.83
2018-12-12T00:50:09.120Z,15.10
2018-12-12T00:52:44.527Z,16.00
2018-12-12T00:55:19.428Z,16.13
2018-12-12T00:57:54.158Z,20.30
2018-12-12T01:00:28.777Z,21.33
2018-12-12T01:03:04.039Z,16.37
2018-12-12T01:05:38.880Z,16.90
2018-12-12T01:08:13.618Z,23.13
2018-12-12T01:10:50.960Z,19.80
2018-12-12T01:13:25.698Z,21.20
2018-12-12T01:16:00.595Z,23.47
2018-12-12T01:18:35.425Z,22.43
2018-12-12T01:21:10.321Z,24.50
2018-12-12T01:23:45.337Z,16.63
2018-12-12T01:26:20.130Z,21.03
2018-12-12T01:28:54.954Z,19.40
2018-12-12T01:31:29.960Z,23.43
2018-12-12T01:34:05.455Z,19.73
2018-12-12T01:36:40.435Z,21.23
2018-12-12T01:39:09.681Z,20.10
2018-12-12T01:41:44.395Z,21.53
2018-12-12T01:44:19.562Z,20.97
2018-12-12T01:46:54.813Z,23.27
2018-12-12T01:49:29.807Z,18.77
2018-12-12T01:52:04.662Z,21.57
2018-12-12T01:54:39.501Z,26.80
2018-12-12T01:57:15.039Z,23.70
2018-12-12T01:59:50.091Z,25.53
2018-12-12T02:02:24.833Z,23.13
2018-12-12T02:05:00.764Z,23.27
2018-12-12T02:07:35.504Z,23.20
2018-12-12T02:10:10.811Z,22.60
2018-12-12T02:13:53.345Z,23.67
2018-12-12T02:16:28.159Z,31.17
2018-12-12T02:18:57.798Z,24.20
2018-12-12T02:21:32.548Z,24.73
2018-12-12T02:24:07.366Z,29.67
2018-12-12T02:26:42.292Z,22.40
2018-12-12T02:29:17.184Z,25.27
2018-12-12T02:31:51.997Z,26.77
2018-12-12T02:34:26.860Z,24.90
2018-12-12T02:37:02.490Z,26.13
2018-12-12T02:39:37.367Z,27.80
2018-12-12T02:42:12.087Z,23.10
2018-12-12T02:44:46.929Z,27.07
2018-12-12T02:47:21.843Z,38.63
2018-12-12T02:49:56.683Z,26.20
2018-12-12T02:52:31.489Z,30.13
2018-12-12T02:55:07.128Z,26.00
2018-12-12T02:57:41.762Z,28.87
2018-12-12T03:00:16.723Z,32.13
2018-12-12T03:02:45.790Z,33.63
2018-12-12T03:05:21.677Z,26.90
2018-12-12T03:07:56.405Z,27.37
2018-12-12T03:10:31.307Z,26.47
2018-12-12T03:13:06.620Z,21.60
2018-12-12T03:15:41.619Z,23.03
2018-12-12T03:18:16.527Z,25.57
2018-12-12T03:20:51.437Z,26.53
2018-12-12T03:23:26.979Z,29.43
2018-12-12T03:26:01.731Z,26.60
2018-12-12T03:28:36.778Z,31.93
2018-12-12T03:31:11.736Z,32.07
2018-12-12T03:33:47.039Z,25.73
2018-12-12T03:36:21.877Z,25.00
2018-12-12T03:38:56.757Z,23.60
2018-12-12T03:41:32.518Z,23.20
2018-12-12T03:44:07.459Z,25.83
2018-12-12T03:46:42.519Z,24.73
2018-12-12T03:49:17.293Z,31.13
2018-12-12T03:51:52.298Z,26.30
2018-12-12T03:54:22.411Z,25.80
2018-12-12T03:56:57.134Z,29.57
2018-12-12T03:59:31.877Z,31.80
2018-12-12T04:02:06.783Z,27.77
2018-12-12T04:04:36.296Z,32.97
2018-12-12T04:07:11.624Z,26.93
2018-12-12T04:09:46.381Z,27.80
2018-12-12T04:12:21.294Z,20.20
2018-12-12T04:14:56.265Z,21.03
2018-12-12T04:17:31.163Z,21.07
2018-12-12T04:20:06.727Z,21.53
2018-12-12T04:22:41.802Z,20.83
2018-12-12T04:25:16.649Z,19.97
2018-12-12T04:27:51.303Z,20.20
2018-12-12T04:30:26.316Z,28.83
2018-12-12T04:33:01.061Z,20.93
2018-12-12T04:35:35.796Z,21.97
2018-12-12T04:38:11.054Z,25.77
2018-12-12T04:40:45.877Z,26.40
2018-12-12T04:43:20.702Z,20.43
2018-12-12T04:45:55.778Z,22.47
2018-12-12T04:48:30.552Z,24.40
2018-12-12T04:51:05.348Z,25.70
2018-12-12T04:53:40.110Z,27.10
2018-12-12T04:56:21.703Z,24.40
2018-12-12T04:58:57.175Z,21.47
2018-12-12T05:01:31.986Z,21.53
2018-12-12T05:04:06.888Z,24.70
2018-12-12T05:06:41.755Z,24.00
2018-12-12T05:09:16.563Z,21.70
2018-12-12T05:11:51.383Z,24.63
2018-12-12T05:14:26.233Z,21.07
2018-12-12T05:17:00.935Z,24.40
2018-12-12T05:19:35.752Z,27.63
2018-12-12T05:22:10.564Z,23.57
2018-12-12T05:24:45.458Z,23.93
2018-12-12T05:27:20.312Z,21.50
2018-12-12T05:29:55.315Z,20.43
2018-12-12T05:32:29.995Z,24.43
2018-12-12T05:35:05.600Z,21.40
2018-12-12T05:37:40.472Z,24.57
2018-12-12T05:40:16.052Z,24.37
2018-12-12T05:42:51.041Z,28.10
2018-12-12T05:45:26.094Z,27.07
2018-12-12T05:48:01.039Z,22.13
2018-12-12T05:50:35.895Z,25.47
2018-12-12T05:53:10.672Z,26.40
2018-12-12T05:55:45.411Z,26.57
2018-12-12T05:58:20.294Z,21.20
2018-12-12T06:00:55.606Z,25.17
2018-12-12T06:03:30.677Z,24.90
2018-12-12T06:06:05.586Z,25.93
2018-12-12T06:08:40.495Z,26.20
2018-12-12T06:11:15.296Z,24.20
2018-12-12T06:13:50.087Z,26.93
2018-12-12T06:16:25.236Z,26.27
2018-12-12T06:18:59.949Z,31.63
2018-12-12T06:21:34.958Z,24.93
2018-12-12T06:24:09.853Z,29.33
2018-12-12T06:26:47.916Z,29.80
2018-12-12T06:29:22.759Z,39.50
2018-12-12T06:31:57.791Z,28.80
2018-12-12T06:34:32.486Z,24.57
2018-12-12T06:37:07.411Z,35.50
2018-12-12T06:39:42.388Z,26.63
2018-12-12T06:42:17.281Z,32.53
2018-12-12T06:44:52.075Z,27.73
2018-12-12T06:47:26.986Z,31.37
2018-12-12T06:50:01.810Z,26.90
2018-12-12T06:52:36.824Z,27.30
2018-12-12T06:55:11.775Z,23.43
2018-12-12T06:57:47.064Z,31.47
2018-12-12T07:00:22.316Z,25.47
2018-12-12T07:02:57.249Z,34.87
2018-12-12T07:05:32.036Z,28.93
2018-12-12T07:08:07.338Z,30.00
2018-12-12T07:10:41.936Z,24.47
2018-12-12T07:13:16.749Z,25.10
2018-12-12T07:15:51.520Z,27.33
2018-12-12T07:18:26.457Z,30.97
2018-12-12T07:21:01.435Z,30.73
2018-12-12T07:23:36.931Z,32.23
2018-12-12T07:26:11.818Z,24.90
2018-12-12T07:28:46.612Z,26.83
2018-12-12T07:31:21.423Z,24.13
2018-12-12T07:34:00.975Z,28.43
2018-12-12T07:36:33.824Z,33.70
2018-12-12T07:39:09.487Z,27.97
2018-12-12T07:41:45.143Z,28.27
2018-12-12T07:44:19.819Z,29.50
2018-12-12T07:46:55.375Z,29.77
2018-12-12T07:49:30.186Z,23.90
2018-12-12T07:52:05.046Z,26.73
2018-12-12T07:54:39.810Z,26.57
2018-12-12T07:57:14.540Z,30.57
2018-12-12T07:59:49.256Z,27.13
2018-12-12T08:02:24.092Z,23.23
2018-12-12T08:04:58.831Z,24.40
2018-12-12T08:07:33.847Z,24.33
2018-12-12T08:10:09.467Z,24.20
2018-12-12T08:12:44.420Z,27.57
2018-12-12T08:15:19.220Z,26.27
2018-12-12T08:17:53.844Z,29.07
2018-12-12T08:20:29.179Z,29.83
2018-12-12T08:23:04.345Z,22.83
2018-12-12T08:25:39.645Z,25.67
2018-12-12T08:28:14.471Z,23.27
2018-12-12T08:30:49.536Z,28.83
2018-12-12T08:33:24.295Z,26.67
2018-12-12T08:35:59.431Z,26.30
2018-12-12T08:38:34.318Z,23.83
2018-12-12T08:41:09.139Z,29.87
2018-12-12T08:43:45.029Z,34.53
2018-12-12T08:46:19.935Z,27.27
2018-12-12T08:48:55.065Z,23.00
2018-12-12T08:51:30.576Z,26.93
2018-12-12T08:54:05.516Z,26.47
2018-12-12T08:56:40.401Z,25.43
2018-12-12T08:59:15.163Z,24.50
2018-12-12T09:01:49.851Z,31.80
2018-12-12T09:04:24.764Z,26.73
2018-12-12T09:06:59.687Z,25.97
2018-12-12T09:09:34.932Z,24.27
2018-12-12T09:12:10.413Z,31.27
2018-12-12T09:14:45.159Z,30.87
2018-12-12T09:17:20.456Z,30.13
2018-12-12T09:19:55.304Z,29.20
2018-12-12T09:22:30.782Z,23.10
2018-12-12T09:25:06.572Z,27.90
2018-12-12T09:27:41.355Z,32.27
2018-12-12T09:30:16.365Z,24.20
2018-12-12T09:32:51.470Z,23.23
2018-12-12T09:35:26.828Z,24.27
2018-12-12T09:38:02.191Z,27.50
2018-12-12T09:40:37.828Z,27.00
2018-12-12T09:43:12.628Z,27.07
2018-12-12T09:45:47.639Z,27.90
2018-12-12T09:48:22.713Z,24.10
2018-12-12T09:50:57.313Z,21.70
2018-12-12T09:53:32.227Z,26.90
2018-12-12T09:56:07.379Z,26.33
2018-12-12T09:58:42.143Z,38.73
2018-12-12T10:01:17.100Z,26.30
2018-12-12T10:03:51.891Z,30.87
2018-12-12T10:06:26.984Z,40.40
2018-12-12T10:09:01.648Z,25.93
2018-12-12T10:11:36.707Z,29.30
2018-12-12T10:14:11.438Z,28.57
2018-12-12T10:16:46.163Z,23.73
2018-12-12T10:19:21.016Z,25.27
2018-12-12T10:21:56.397Z,25.43
2018-12-12T10:24:35.068Z,17.10
2018-12-12T10:27:10.096Z,13.53
2018-12-12T10:29:44.828Z,8.40
2018-12-12T10:32:19.642Z,8.67
2018-12-12T10:34:54.476Z,11.83
2018-12-12T10:37:29.291Z,9.30
2018-12-12T10:40:05.111Z,18.70
2018-12-12T10:42:40.204Z,9.90
2018-12-12T10:45:15.180Z,7.70
2018-12-12T10:47:49.946Z,10.93
2018-12-12T10:50:24.605Z,13.23
2018-12-12T10:52:59.420Z,13.30
2018-12-12T10:55:34.421Z,12.30
2018-12-12T10:58:09.240Z,8.23
2018-12-12T11:00:48.338Z,10.60
2018-12-12T11:03:44.314Z,12.70
2018-12-12T11:06:18.217Z,12.23
2018-12-12T11:08:53.000Z,16.07
2018-12-12T11:11:28.332Z,13.23
2018-12-12T11:14:03.948Z,12.07
2018-12-12T11:16:38.657Z,15.73
2018-12-12T11:19:13.538Z,14.20
2018-12-12T11:21:48.605Z,11.40
2018-12-12T11:24:23.254Z,14.10
2018-12-12T11:26:58.361Z,8.60
2018-12-12T11:29:32.964Z,8.83
2018-12-12T11:32:07.715Z,10.03
2018-12-12T11:34:42.788Z,7.20
2018-12-12T11:37:18.118Z,7.43
2018-12-12T11:39:53.031Z,9.50
2018-12-12T11:42:27.874Z,7.97
2018-12-12T11:45:02.769Z,8.07
2018-12-12T11:47:37.681Z,7.00
2018-12-12T11:50:12.997Z,6.70
2018-12-12T11:52:48.005Z,9.23
2018-12-12T11:55:22.832Z,9.57
2018-12-12T11:57:57.520Z,8.20
2018-12-12T12:00:32.164Z,13.37
2018-12-12T12:03:07.202Z,11.97
2018-12-12T12:05:41.887Z,13.83
2018-12-12T12:08:16.661Z,11.20
2018-12-12T12:10:51.721Z,12.10
2018-12-12T12:13:26.389Z,13.83
2018-12-12T12:16:01.231Z,9.57
2018-12-12T12:18:36.019Z,12.30
2018-12-12T12:21:11.258Z,10.63
2018-12-12T12:23:45.959Z,9.20
2018-12-12T12:26:21.263Z,10.53
2018-12-12T12:28:56.848Z,12.30
2018-12-12T12:31:31.587Z,6.93
2018-12-12T12:34:06.736Z,8.30
2018-12-12T12:36:41.960Z,9.63
2018-12-12T12:39:16.979Z,11.47
2018-12-12T12:41:51.951Z,12.73
2018-12-12T12:44:26.822Z,13.17
2018-12-12T12:47:01.868Z,13.37
2018-12-12T12:49:36.667Z,16.30
2018-12-12T12:52:11.455Z,17.60
2018-12-12T12:54:46.352Z,17.53
2018-12-12T12:57:20.994Z,16.10
2018-12-12T12:59:55.946Z,18.27
2018-12-12T13:02:30.780Z,17.63
2018-12-12T13:05:07.090Z,17.67
2018-12-12T13:07:41.980Z,17.10
2018-12-12T13:10:17.120Z,13.43
2018-12-12T13:12:52.636Z,14.43
2018-12-12T13:15:27.994Z,19.13
2018-12-12T13:18:03.259Z,13.80
2018-12-12T13:20:39.204Z,13.47
2018-12-12T13:23:14.872Z,13.37
2018-12-12T13:25:50.184Z,16.20
2018-12-12T13:28:25.029Z,17.37
2018-12-12T13:31:00.011Z,14.37
2018-12-12T13:33:34.939Z,14.40
2018-12-12T13:36:09.930Z,15.20
2018-12-12T13:38:44.656Z,16.43
2018-12-12T13:41:19.620Z,14.33
2018-12-12T13:43:54.485Z,14.57
2018-12-12T13:46:29.964Z,16.67
2018-12-12T13:49:04.913Z,14.40
2018-12-12T13:51:39.914Z,14.10
2018-12-12T13:54:14.989Z,13.83
2018-12-12T13:56:49.739Z,18.63
2018-12-12T13:59:25.388Z,16.70
2018-12-12T14:02:00.311Z,14.83
2018-12-12T14:04:35.338Z,15.40
2018-12-12T14:07:11.870Z,14.93
2018-12-12T14:09:47.409Z,18.50
2018-12-12T14:12:22.522Z,19.90
2018-12-12T14:14:57.470Z,16.93
2018-12-12T14:17:32.457Z,14.60
2018-12-12T14:20:08.191Z,15.97
2018-12-12T14:22:48.103Z,17.23
2018-12-12T14:25:23.259Z,19.00
2018-12-12T14:27:58.534Z,21.13
2018-12-12T14:30:33.433Z,20.30
2018-12-12T14:33:08.534Z,19.00
2018-12-12T14:35:43.440Z,18.13
2018-12-12T14:38:18.327Z,18.70
2018-12-12T14:40:53.166Z,17.07
2018-12-12T14:43:28.152Z,23.57
2018-12-12T14:46:03.177Z,17.50
2018-12-12T14:48:38.163Z,18.80
2018-12-12T14:51:13.107Z,16.33
2018-12-12T14:53:48.055Z,15.70
2018-12-12T14:56:22.927Z,17.50
2018-12-12T14:58:58.531Z,15.97
2018-12-12T15:01:33.736Z,16.63
2018-12-12T15:04:08.368Z,15.40
2018-12-12T15:06:43.514Z,20.70
2018-12-12T15:09:18.505Z,16.53
2018-12-12T15:11:53.454Z,14.80
2018-12-12T15:14:28.172Z,19.90
2018-12-12T15:17:03.698Z,20.30
2018-12-12T15:19:38.624Z,19.17
2018-12-12T15:22:13.968Z,21.60
2018-12-12T15:24:48.649Z,17.53
2018-12-12T15:27:23.554Z,16.80
2018-12-12T15:29:58.707Z,19.33
2018-12-12T15:32:33.687Z,18.83
2018-12-12T15:35:08.574Z,18.40
2018-12-12T15:37:43.592Z,19.57
2018-12-12T15:40:18.420Z,19.93
2018-12-12T15:42:53.244Z,20.33
2018-12-12T15:45:27.968Z,21.07
2018-12-12T15:48:03.261Z,24.03
2018-12-12T15:50:38.271Z,19.73
2018-12-12T15:53:13.091Z,22.90
2018-12-12T15:55:48.156Z,21.43
2018-12-12T15:58:23.156Z,23.47
2018-12-12T16:00:58.161Z,18.00
2018-12-12T16:03:33.108Z,21.23
2018-12-12T16:06:07.884Z,19.90
2018-12-12T16:08:42.847Z,21.53
2018-12-12T16:11:17.589Z,18.40
2018-12-12T16:13:52.280Z,24.07
2018-12-12T16:16:27.243Z,17.77
2018-12-12T16:19:02.299Z,21.13
2018-12-12T16:21:38.384Z,19.20
2018-12-12T16:24:13.108Z,23.00
2018-12-12T16:26:48.342Z,16.23
2018-12-12T16:29:23.607Z,19.40
2018-12-12T16:31:58.496Z,22.63
2018-12-12T16:34:33.431Z,19.90
2018-12-12T16:37:08.118Z,20.03
2018-12-12T16:39:42.819Z,18.40
2018-12-12T16:42:17.648Z,19.73
2018-12-12T16:44:52.667Z,20.00
2018-12-12T16:47:27.728Z,19.50
2018-12-12T16:50:03.846Z,18.47
2018-12-12T16:52:38.791Z,16.57
2018-12-12T16:55:13.903Z,18.17
2018-12-12T16:57:49.308Z,18.20
2018-12-12T17:00:24.263Z,20.20
2018-12-12T17:02:59.158Z,21.07
2018-12-12T17:05:34.379Z,20.53
2018-12-12T17:08:09.245Z,21.30
2018-12-12T17:10:44.332Z,19.63
2018-12-12T17:13:19.690Z,22.53
2018-12-12T17:15:54.544Z,23.20
2018-12-12T17:18:29.408Z,19.30
2018-12-12T17:21:05.585Z,20.37
2018-12-12T17:23:40.480Z,17.17
2018-12-12T17:26:15.706Z,22.27
2018-12-12T17:28:50.983Z,16.87
2018-12-12T17:31:26.195Z,19.60
2018-12-12T17:34:01.041Z,17.87
2018-12-12T17:36:36.566Z,18.13
2018-12-12T17:39:11.552Z,16.40
2018-12-12T17:41:46.301Z,17.60
2018-12-12T17:44:21.217Z,18.97
2018-12-12T17:46:56.215Z,16.30
2018-12-12T17:49:31.602Z,21.50
2018-12-12T17:52:07.302Z,19.13
2018-12-12T17:54:42.388Z,16.57
2018-12-12T17:57:17.130Z,17.50
2018-12-12T17:59:51.938Z,16.23
2018-12-12T18:02:27.042Z,18.97
2018-12-12T18:05:01.917Z,15.23
2018-12-12T18:07:37.379Z,16.03
2018-12-12T18:10:12.347Z,17.80
2018-12-12T18:12:48.328Z,16.90
2018-12-12T18:15:23.262Z,15.60
2018-12-12T18:17:58.709Z,24.30
2018-12-12T18:20:33.767Z,20.40
2018-12-12T18:23:09.412Z,18.00
2018-12-12T18:25:44.472Z,16.10
2018-12-12T18:28:19.359Z,17.77
2018-12-12T18:30:54.401Z,15.20
2018-12-12T18:33:29.123Z,15.83
2018-12-12T18:36:04.217Z,15.17
2018-12-12T18:38:39.165Z,15.53
2018-12-12T18:41:14.185Z,13.20
2018-12-12T18:43:49.029Z,15.07
2018-12-12T18:46:24.103Z,13.17
2018-12-12T18:48:59.065Z,12.10
2018-12-12T18:51:34.210Z,16.10
2018-12-12T18:54:09.554Z,14.27
2018-12-12T18:56:44.569Z,12.60
2018-12-12T18:59:19.419Z,13.27
2018-12-12T19:01:54.462Z,13.17
2018-12-12T19:04:29.398Z,13.70
2018-12-12T19:07:04.568Z,13.43
2018-12-12T19:09:39.756Z,15.07
2018-12-12T19:12:15.056Z,13.67
2018-12-12T19:14:59.060Z,13.80
2018-12-12T19:17:34.152Z,14.07
2018-12-12T19:20:09.996Z,13.60
2018-12-12T19:22:45.216Z,14.40
2018-12-12T19:25:20.429Z,14.07
2018-12-12T19:27:55.573Z,16.90
2018-12-12T19:30:30.658Z,15.07
2018-12-12T19:33:05.597Z,14.53
2018-12-12T19:35:40.669Z,16.10
2018-12-12T19:38:15.963Z,18.17
2018-12-12T19:40:51.038Z,17.90
2018-12-12T19:43:26.450Z,18.00
2018-12-12T19:46:01.844Z,16.77
2018-12-12T19:48:37.024Z,15.93
2018-12-12T19:51:11.879Z,13.80
2018-12-12T19:53:47.045Z,11.67
2018-12-12T19:56:22.218Z,15.10
2018-12-12T19:58:57.722Z,14.60
2018-12-12T20:01:32.653Z,14.37
2018-12-12T20:04:07.675Z,15.43
2018-12-12T20:06:42.756Z,13.17
2018-12-12T20:09:18.100Z,12.60
2018-12-12T20:11:53.180Z,15.13
2018-12-12T20:14:27.983Z,13.97
2018-12-12T20:17:03.252Z,14.97
2018-12-12T20:19:38.232Z,15.20
2018-12-12T20:22:13.247Z,13.83
2018-12-12T20:24:48.393Z,14.80
2018-12-12T20:27:23.436Z,18.13
2018-12-12T20:29:58.332Z,14.87
2018-12-12T20:32:33.266Z,15.90
2018-12-12T20:35:08.396Z,14.03
2018-12-12T20:37:46.718Z,17.67
2018-12-12T20:40:21.433Z,14.53
2018-12-12T20:42:56.592Z,13.83
2018-12-12T20:45:32.093Z,15.33
2018-12-12T20:48:07.313Z,17.07
2018-12-12T20:50:42.131Z,17.93
2018-12-12T20:53:17.185Z,15.60
2018-12-12T20:55:51.981Z,14.50
2018-12-12T20:58:27.374Z,15.13
2018-12-12T21:01:02.114Z,13.20
2018-12-12T21:03:37.719Z,14.30
2018-12-12T21:06:12.837Z,13.23
2018-12-12T21:08:48.354Z,12.33
2018-12-12T21:11:24.653Z,12.13
2018-12-12T21:14:00.342Z,11.27
2018-12-12T21:16:36.643Z,9.57
2018-12-12T21:19:13.354Z,10.67
2018-12-12T21:21:48.567Z,10.23
2018-12-12T21:24:24.308Z,12.00
2018-12-12T21:26:59.364Z,12.40
2018-12-12T21:29:34.310Z,13.53
2018-12-12T21:32:09.287Z,13.07
2018-12-12T21:34:44.448Z,17.23
2018-12-12T21:37:19.318Z,19.10
2018-12-12T21:39:55.105Z,16.13
2018-12-12T21:42:30.014Z,16.53
2018-12-12T21:45:05.539Z,18.63
2018-12-12T21:47:40.538Z,16.83
2018-12-12T21:50:15.301Z,19.30
2018-12-12T21:52:50.202Z,17.70
2018-12-12T21:55:25.294Z,19.30
2018-12-12T21:58:01.156Z,20.37
2018-12-12T22:00:36.277Z,20.30
2018-12-12T22:03:11.218Z,18.20
2018-12-12T22:05:46.817Z,21.50
2018-12-12T22:08:21.847Z,20.13
2018-12-12T22:10:57.053Z,17.90
2018-12-12T22:13:31.787Z,18.87
2018-12-12T22:16:07.448Z,19.57
2018-12-12T22:18:42.608Z,23.50
2018-12-12T22:21:17.765Z,18.90
2018-12-12T22:23:52.688Z,19.43
2018-12-12T22:26:28.130Z,22.07
2018-12-12T22:29:06.616Z,19.60
2018-12-12T22:31:41.352Z,23.63
2018-12-12T22:34:16.349Z,18.40
2018-12-12T22:36:51.725Z,21.13
2018-12-12T22:39:26.925Z,22.57
2018-12-12T22:42:01.957Z,21.27
2018-12-12T22:44:37.177Z,22.70
2018-12-12T22:47:11.907Z,24.97
2018-12-12T22:49:47.024Z,22.30
2018-12-12T22:52:21.743Z,19.17
2018-12-12T22:54:57.062Z,20.70
2018-12-12T22:57:32.228Z,23.53
2018-12-12T23:00:14.176Z,22.70
2018-12-12T23:02:48.879Z,19.10
2018-12-12T23:05:23.791Z,18.90
2018-12-12T23:07:58.491Z,20.53
2018-12-12T23:10:33.342Z,20.70
2018-12-12T23:13:08.465Z,17.17
2018-12-12T23:15:43.103Z,19.30
2018-12-12T23:18:17.953Z,18.20
2018-12-12T23:20:52.897Z,16.47
2018-12-12T23:23:27.641Z,17.93
2018-12-12T23:26:02.577Z,18.37
2018-12-12T23:28:37.576Z,19.40
2018-12-12T23:31:12.273Z,20.00
2018-12-12T23:33:47.029Z,19.50
2018-12-12T23:36:26.915Z,21.83
2018-12-12T23:38:59.440Z,21.57
2018-12-12T23:41:34.906Z,22.63
2018-12-12T23:44:09.857Z,21.23
2018-12-12T23:46:44.777Z,18.90
2018-12-12T23:49:19.675Z,22.20
2018-12-12T23:51:54.507Z,20.70
2018-12-12T23:54:29.400Z,19.80
2018-12-12T23:57:04.200Z,18.90
2018-12-12T23:59:39.049Z,22.50
